Time;durP1;ratioP1;P1;durP2;ratioP2;P2;SDS_P1;SDS_P2;PMS_P1;PMS_P2;Temp;Humidity;BMP_temperature;BMP_pressure;BME280_temperature;BME280_humidity;BME280_pressure;Samples;Min_cycle;Max_cycle;Signal;HPM_P1;HPM_P2
2022/10/11 00:02:17;;;;;;;10.68;2.63;;;;;;;14.30;100.00;99232.59;5046274;28;20078;-68
2022/10/11 00:04:43;;;;;;;8.55;2.80;;;;;;;14.18;100.00;99222.41;5047378;28;20024;-68
2022/10/11 00:07:09;;;;;;;5.85;2.50;;;;;;;14.19;100.00;99236.84;5037303;28;20036;-68
2022/10/11 00:09:34;;;;;;;7.28;3.05;;;;;;;14.03;100.00;99219.13;5039288;28;20041;-68
2022/10/11 00:11:59;;;;;;;9.77;3.15;;;;;;;14.05;100.00;99232.53;5040964;28;20037;-68
2022/10/11 00:14:25;;;;;;;9.85;3.47;;;;;;;13.96;100.00;99237.34;5050413;28;20111;-68
2022/10/11 00:16:52;;;;;;;6.07;2.92;;;;;;;14.03;100.00;99240.88;5048651;28;20373;-68
2022/10/11 00:19:18;;;;;;;12.63;3.45;;;;;;;14.03;100.00;99235.44;5046356;28;20033;-68
2022/10/11 00:21:43;;;;;;;7.03;3.22;;;;;;;13.88;100.00;99237.59;5037093;28;20039;-68
2022/10/11 00:24:09;;;;;;;9.38;3.70;;;;;;;13.76;100.00;99240.97;5044518;28;20020;-68
2022/10/11 00:26:35;;;;;;;8.30;3.30;;;;;;;13.65;100.00;99243.50;5041695;28;20050;-68
2022/10/11 00:29:00;;;;;;;14.00;3.88;;;;;;;13.52;100.00;99252.53;5038676;28;21856;-68
2022/10/11 00:31:25;;;;;;;10.05;3.53;;;;;;;13.47;100.00;99255.06;5048061;28;20074;-68
2022/10/11 00:33:52;;;;;;;12.23;3.38;;;;;;;13.46;100.00;99259.63;5041917;28;20430;-68
2022/10/11 00:36:18;;;;;;;8.73;2.92;;;;;;;13.46;100.00;99261.53;5043869;28;20125;-68
2022/10/11 00:38:44;;;;;;;9.52;3.00;;;;;;;13.42;100.00;99257.56;5044313;28;20100;-68
2022/10/11 00:41:10;;;;;;;8.48;3.15;;;;;;;13.52;100.00;99263.41;5043471;28;20562;-68
2022/10/11 00:43:36;;;;;;;11.20;3.42;;;;;;;13.51;100.00;99257.13;5045086;28;20029;-68
2022/10/11 00:46:16;;;;;;;10.52;3.20;;;;;;;13.53;100.00;99260.47;5049534;28;20094;-68
2022/10/11 00:48:55;;;;;;;9.65;3.80;;;;;;;13.49;100.00;99252.94;5046300;28;20385;-68
2022/10/11 00:51:31;;;;;;;8.50;3.28;;;;;;;13.44;100.00;99263.59;5041335;28;20028;-68
2022/10/11 00:54:00;;;;;;;8.95;3.75;;;;;;;13.56;100.00;99242.91;5041467;28;20041;-68
2022/10/11 00:56:31;;;;;;;9.93;3.63;;;;;;;13.50;100.00;99254.63;5041932;28;20032;-68
2022/10/11 00:58:59;;;;;;;8.57;3.60;;;;;;;13.44;100.00;99269.03;5056486;28;20029;-68
2022/10/11 01:01:25;;;;;;;9.07;3.60;;;;;;;13.33;100.00;99252.31;5064657;28;20021;-68
2022/10/11 01:03:50;;;;;;;12.95;3.78;;;;;;;13.33;100.00;99265.09;5057436;28;20532;-68
2022/10/11 01:06:16;;;;;;;11.35;4.82;;;;;;;13.30;100.00;99266.34;5058948;28;20024;-69
2022/10/11 01:08:42;;;;;;;13.23;4.07;;;;;;;13.28;100.00;99268.44;5059161;28;20054;-68
2022/10/11 01:11:12;;;;;;;11.20;4.13;;;;;;;13.22;100.00;99258.38;5067958;28;20085;-68
2022/10/11 01:13:50;;;;;;;13.55;4.53;;;;;;;13.32;100.00;99269.69;5069333;28;20032;-68
2022/10/11 01:16:49;;;;;;;12.60;4.60;;;;;;;13.33;100.00;99262.38;5054496;28;20025;-68
2022/10/11 01:20:01;;;;;;;11.52;4.13;;;;;;;13.53;100.00;99274.06;5048723;28;20064;-68
2022/10/11 01:22:51;;;;;;;13.40;4.60;;;;;;;13.68;100.00;99273.00;5050247;28;20032;-68
2022/10/11 01:25:24;;;;;;;14.48;4.25;;;;;;;13.75;100.00;99276.53;5046852;28;20033;-68
2022/10/11 01:27:55;;;;;;;12.10;4.65;;;;;;;13.95;100.00;99269.16;5041577;28;20115;-68
2022/10/11 01:30:22;;;;;;;8.55;3.15;;;;;;;13.96;100.00;99262.69;5047408;28;20551;-68
2022/10/11 01:33:05;;;;;;;11.38;3.33;;;;;;;13.80;100.00;99265.84;5040849;28;20043;-68
2022/10/11 01:35:44;;;;;;;4.43;2.70;;;;;;;13.55;100.00;99235.81;5046007;28;20032;-68
2022/10/11 01:38:13;;;;;;;7.55;3.10;;;;;;;13.70;100.00;99274.47;5038854;28;20040;-68
2022/10/11 01:40:47;;;;;;;7.63;2.80;;;;;;;13.58;100.00;99265.28;5047133;28;20032;-68
2022/10/11 01:43:14;;;;;;;9.48;3.83;;;;;;;13.47;100.00;99264.03;5046973;28;20022;-68
2022/10/11 01:45:41;;;;;;;7.43;3.70;;;;;;;13.60;100.00;99271.34;5048301;28;20430;-68
2022/10/11 01:48:12;;;;;;;11.55;3.70;;;;;;;13.55;100.00;99271.16;5041138;28;20032;-68
2022/10/11 01:50:37;;;;;;;9.90;3.42;;;;;;;13.49;100.00;99270.13;5040328;28;20037;-68
2022/10/11 01:53:33;;;;;;;9.68;3.28;;;;;;;13.33;100.00;99265.09;5041375;28;20025;-68
2022/10/11 01:56:23;;;;;;;11.13;3.47;;;;;;;13.42;100.00;99263.00;5043047;28;20025;-68
2022/10/11 01:59:13;;;;;;;20.20;5.47;;;;;;;13.41;100.00;99266.75;5041744;28;20514;-68
2022/10/11 02:02:05;;;;;;;15.55;4.85;;;;;;;13.42;100.00;99266.56;5042638;28;20041;-68
2022/10/11 02:04:36;;;;;;;8.90;4.03;;;;;;;13.31;100.00;99268.03;5035709;28;20111;-68
2022/10/11 02:07:07;;;;;;;12.98;4.78;;;;;;;13.25;100.00;99260.66;5043596;28;20025;-68
2022/10/11 02:09:52;;;;;;;10.95;4.70;;;;;;;13.06;100.00;99254.19;5042845;28;20028;-68
2022/10/11 02:12:29;;;;;;;12.13;5.28;;;;;;;13.00;100.00;99270.50;5045713;28;20025;-68
2022/10/11 02:14:56;;;;;;;14.88;6.38;;;;;;;12.99;100.00;99274.25;5037578;28;20043;-68
2022/10/11 02:17:27;;;;;;;14.68;6.32;;;;;;;12.92;100.00;99277.78;5045455;28;20044;-68
2022/10/11 02:19:57;;;;;;;15.70;6.57;;;;;;;12.75;100.00;99273.78;5041983;28;20086;-68
2022/10/11 02:22:29;;;;;;;18.55;6.43;;;;;;;12.67;100.00;99282.97;5043954;28;20028;-68
2022/10/11 02:24:58;;;;;;;12.93;7.03;;;;;;;12.74;100.00;99280.28;5031647;28;20560;-68
2022/10/11 02:27:26;;;;;;;15.40;7.67;;;;;;;12.67;100.00;99282.13;5042420;28;20398;-68
2022/10/11 02:29:54;;;;;;;19.73;7.88;;;;;;;12.60;100.00;99283.97;5045537;28;20311;-68
2022/10/11 02:32:20;;;;;;;12.93;7.15;;;;;;;12.56;100.00;99293.59;5039020;28;20036;-68
2022/10/11 02:34:52;;;;;;;18.80;8.73;;;;;;;12.44;100.00;99287.91;5045297;28;20032;-68
2022/10/11 02:37:34;;;;;;;15.77;7.47;;;;;;;12.51;100.00;99296.91;5040708;28;20037;-68
2022/10/11 02:40:06;;;;;;;18.75;7.88;;;;;;;12.69;100.00;99309.91;5050390;28;20033;-68
2022/10/11 02:42:43;;;;;;;19.17;9.02;;;;;;;12.83;100.00;99302.63;5047514;28;20029;-68
2022/10/11 02:45:23;;;;;;;17.50;8.15;;;;;;;12.90;100.00;99295.34;5039018;28;20068;-68
2022/10/11 02:47:48;;;;;;;;;;;;;;;13.05;100.00;99303.31;5042538;28;20036;-68
2022/10/11 02:50:14;;;;;;;16.48;7.32;;;;;;;13.07;100.00;99302.06;5051590;28;19920;-68
2022/10/11 02:52:39;;;;;;;15.38;6.90;;;;;;;13.11;100.00;99291.59;5050030;28;20386;-68
2022/10/11 02:55:05;;;;;;;11.95;6.15;;;;;;;12.92;100.00;99277.78;5043269;28;20057;-68
2022/10/11 02:57:31;;;;;;;14.75;5.97;;;;;;;12.91;100.00;99297.00;5044916;28;20060;-68
2022/10/11 02:59:56;;;;;;;14.63;6.13;;;;;;;12.78;100.00;99277.97;5092486;22;20042;-70
2022/10/11 03:02:21;;;;;;;12.30;7.10;;;;;;;12.86;100.00;99289.50;5058732;28;20032;-70
2022/10/11 03:04:46;;;;;;;18.90;7.35;;;;;;;13.09;100.00;99316.25;5059361;28;20029;-70
2022/10/11 03:07:12;;;;;;;16.70;7.47;;;;;;;13.05;100.00;99315.00;5065262;28;20508;-70
2022/10/11 03:09:37;;;;;;;13.15;6.65;;;;;;;13.11;100.00;99308.72;5058325;28;21244;-69
2022/10/11 03:12:03;;;;;;;13.68;6.43;;;;;;;13.14;100.00;99307.47;5061995;28;20017;-70
2022/10/11 03:14:28;;;;;;;13.80;7.00;;;;;;;13.15;100.00;99318.16;5058251;28;20086;-70
2022/10/11 03:16:53;;;;;;;11.40;6.20;;;;;;;13.05;100.00;99292.44;5062244;28;20039;-70
2022/10/11 03:19:19;;;;;;;18.13;5.90;;;;;;;13.20;100.00;99311.25;5062944;28;20028;-70
2022/10/11 03:21:44;;;;;;;10.02;5.80;;;;;;;13.18;100.00;99316.91;5068031;28;20375;-70
2022/10/11 03:24:09;;;;;;;13.00;5.82;;;;;;;13.13;100.00;99311.25;5068487;28;20023;-70
2022/10/11 03:26:35;;;;;;;14.90;7.32;;;;;;;13.14;100.00;99313.75;5065591;28;20025;-70
2022/10/11 03:29:00;;;;;;;15.93;7.18;;;;;;;13.04;100.00;99297.00;5055028;28;20021;-70
2022/10/11 03:31:26;;;;;;;14.00;6.38;;;;;;;13.10;100.00;99323.38;5065529;28;20363;-70
2022/10/11 03:33:51;;;;;;;16.95;8.30;;;;;;;12.98;100.00;99302.47;5068449;28;20032;-70
2022/10/11 03:36:16;;;;;;;16.33;7.30;;;;;;;13.02;100.00;99315.44;5060170;28;20138;-70
2022/10/11 03:38:42;;;;;;;21.05;9.05;;;;;;;12.91;100.00;99316.00;5067147;28;20032;-70
2022/10/11 03:41:07;;;;;;;18.42;7.55;;;;;;;12.73;100.00;99305.72;5070647;28;20039;-69
2022/10/11 03:43:32;;;;;;;18.15;8.15;;;;;;;12.84;100.00;99332.31;5058828;28;20216;-69
2022/10/11 03:45:57;;;;;;;12.88;7.15;;;;;;;12.76;100.00;99340.63;5067734;28;20037;-70
2022/10/11 03:48:23;;;;;;;16.65;7.40;;;;;;;12.72;100.00;99337.47;5070941;28;20024;-69
2022/10/11 03:50:48;;;;;;;18.40;8.63;;;;;;;12.57;100.00;99330.53;5066612;28;21342;-69
2022/10/11 03:53:14;;;;;;;22.10;9.27;;;;;;;12.59;100.00;99345.56;5060663;28;20033;-70
2022/10/11 03:55:40;;;;;;;21.85;8.93;;;;;;;12.55;100.00;99336.19;5067616;28;20048;-70
2022/10/11 03:58:06;;;;;;;17.27;8.98;;;;;;;12.44;100.00;99334.91;5067855;28;20111;-69
2022/10/11 04:00:32;;;;;;;16.13;7.85;;;;;;;12.30;100.00;99327.72;5065123;28;20478;-69
2022/10/11 04:02:58;;;;;;;18.30;8.02;;;;;;;12.39;100.00;99348.22;5067562;28;20040;-69
2022/10/11 04:05:23;;;;;;;17.80;9.25;;;;;;;12.33;100.00;99354.44;5064031;28;20395;-69
2022/10/11 04:07:48;;;;;;;20.33;8.38;;;;;;;12.22;100.00;99357.72;5063525;28;20039;-69
2022/10/11 04:10:14;;;;;;;19.38;9.20;;;;;;;12.20;100.00;99370.66;5063933;28;20035;-69
2022/10/11 04:12:39;;;;;;;24.27;9.55;;;;;;;12.13;100.00;99359.78;5067864;28;20048;-69
2022/10/11 04:15:05;;;;;;;26.60;10.68;;;;;;;12.03;100.00;99360.13;5059354;28;20074;-76
2022/10/11 04:17:31;;;;;;;24.33;10.70;;;;;;;12.00;100.00;99365.97;5060306;28;20109;-73
2022/10/11 04:19:56;;;;;;;21.08;8.70;;;;;;;11.94;100.00;99364.00;5068738;28;20096;-72
2022/10/11 04:22:21;;;;;;;26.38;9.68;;;;;;;11.77;100.00;99352.63;5071788;28;20024;-73
2022/10/11 04:24:47;;;;;;;19.15;9.98;;;;;;;11.93;100.00;99370.50;5069015;28;20495;-73
2022/10/11 04:27:12;;;;;;;25.08;10.20;;;;;;;11.99;100.00;99372.41;5066868;28;20067;-73
2022/10/11 04:29:37;;;;;;;19.10;9.35;;;;;;;11.87;100.00;99357.72;5058543;28;20032;-73
2022/10/11 04:32:03;;;;;;;21.35;9.88;;;;;;;11.98;100.00;99368.03;5065871;28;20026;-75
2022/10/11 04:34:28;;;;;;;22.40;10.90;;;;;;;11.92;100.00;99355.28;5061215;28;20474;-74
2022/10/11 04:36:53;;;;;;;25.77;11.23;;;;;;;12.14;100.00;99383.13;5063668;28;20517;-75
2022/10/11 04:39:18;;;;;;;23.75;10.52;;;;;;;12.07;100.00;99372.25;5053430;28;20478;-75
2022/10/11 04:41:44;;;;;;;24.70;10.60;;;;;;;12.19;100.00;99387.97;5062103;28;20095;-74
2022/10/11 04:44:09;;;;;;;18.40;9.95;;;;;;;12.14;100.00;99380.44;5057876;28;20031;-74
2022/10/11 04:46:34;;;;;;;23.33;11.45;;;;;;;12.15;100.00;99384.81;5064723;28;20081;-73
2022/10/11 04:49:00;;;;;;;25.13;11.88;;;;;;;11.87;100.00;99349.59;5060295;28;20020;-75
2022/10/11 04:51:27;;;;;;;22.55;11.27;;;;;;;12.02;100.00;99373.88;5059248;28;20493;-75
2022/10/11 04:53:53;;;;;;;21.75;10.30;;;;;;;12.01;100.00;99381.19;5069426;28;20025;-74
2022/10/11 04:56:18;;;;;;;25.13;10.18;;;;;;;11.98;100.00;99376.16;5055688;28;20061;-73
2022/10/11 04:58:46;;;;;;;26.30;12.40;;;;;;;12.11;100.00;99390.84;5063150;28;20042;-74
2022/10/11 05:01:13;;;;;;;27.40;11.77;;;;;;;12.12;100.00;99395.22;5066514;28;20478;-77
2022/10/11 05:03:38;;;;;;;20.95;10.65;;;;;;;12.00;100.00;99384.94;5058916;28;20080;-75
2022/10/11 05:06:04;;;;;;;20.65;10.90;;;;;;;11.98;100.00;99389.72;5063238;28;20052;-74
2022/10/11 05:08:29;;;;;;;23.08;10.30;;;;;;;11.75;100.00;99361.97;5066735;28;20040;-74
2022/10/11 05:10:58;;;;;;;20.92;10.95;;;;;;;11.92;100.00;99403.22;5064156;28;20104;-73
2022/10/11 05:13:24;;;;;;;;;;;;;;;11.81;100.00;99399.13;5072378;28;20024;-74
2022/10/11 05:15:50;;;;;;;22.48;10.57;;;;;;;11.54;100.00;99360.16;5056465;28;19959;-74
2022/10/11 05:18:15;;;;;;;25.98;11.75;;;;;;;11.67;100.00;99392.78;5064894;28;20071;-75
2022/10/11 05:20:41;;;;;;;23.98;10.77;;;;;;;11.65;100.00;99389.41;5063803;28;20028;-75
2022/10/11 05:23:07;;;;;;;25.38;11.00;;;;;;;11.59;100.00;99363.94;5061653;28;20025;-76
2022/10/11 05:25:32;;;;;;;23.42;11.02;;;;;;;11.61;100.00;99359.19;5059935;28;20111;-76
2022/10/11 05:27:58;;;;;;;20.13;11.18;;;;;;;11.90;100.00;99400.72;5069178;28;20516;-75
2022/10/11 05:30:23;;;;;;;26.45;11.15;;;;;;;11.99;100.00;99413.06;5060647;28;20028;-68
2022/10/11 05:32:48;;;;;;;23.58;11.77;;;;;;;12.11;100.00;99409.84;5060079;28;20024;-68
2022/10/11 05:35:14;;;;;;;19.42;9.77;;;;;;;12.19;100.00;99417.81;5066412;28;20030;-68
2022/10/11 05:37:39;;;;;;;23.58;10.90;;;;;;;12.27;100.00;99415.78;5065845;28;20440;-67
2022/10/11 05:40:05;;;;;;;24.75;11.23;;;;;;;12.48;100.00;99420.28;5064792;28;20039;-68
2022/10/11 05:42:31;;;;;;;20.85;10.20;;;;;;;12.47;100.00;99415.91;5065482;28;20024;-70
2022/10/11 05:44:56;;;;;;;22.00;9.95;;;;;;;12.25;100.00;99388.00;5054478;28;20032;-70
2022/10/11 05:47:21;;;;;;;27.45;10.77;;;;;;;12.55;100.00;99412.19;5062186;28;20075;-71
2022/10/11 05:49:47;;;;;;;20.88;9.50;;;;;;;12.60;100.00;99422.41;5063577;28;20020;-71
2022/10/11 05:52:12;;;;;;;17.35;9.48;;;;;;;12.56;100.00;99411.13;5063071;28;20050;-71
2022/10/11 05:54:37;;;;;;;25.08;10.65;;;;;;;12.59;100.00;99404.47;5069497;28;20389;-70
2022/10/11 05:57:03;;;;;;;26.80;9.68;;;;;;;12.75;100.00;99416.84;5060054;28;20020;-68
2022/10/11 05:59:29;;;;;;;24.52;9.68;;;;;;;12.77;100.00;99431.91;5058946;28;20086;-68
2022/10/11 06:01:54;;;;;;;20.20;9.43;;;;;;;12.82;100.00;99434.03;5068192;28;20033;-70
2022/10/11 06:04:19;;;;;;;17.40;9.30;;;;;;;12.87;100.00;99426.94;5066520;28;20531;-67
2022/10/11 06:06:44;;;;;;;31.17;10.05;;;;;;;12.88;100.00;99434.03;5062790;28;20033;-70
2022/10/11 06:09:11;;;;;;;18.13;8.43;;;;;;;12.87;100.00;99418.78;5059341;28;20588;-74
2022/10/11 06:11:36;;;;;;;16.83;8.50;;;;;;;12.74;100.00;99399.72;5068122;28;20052;-74
2022/10/11 06:14:03;;;;;;;20.80;8.18;;;;;;;12.95;100.00;99444.94;5067625;28;20106;-74
2022/10/11 06:16:29;;;;;;;18.08;8.38;;;;;;;12.80;100.00;99407.06;5047168;28;20035;-73
2022/10/11 06:18:55;;;;;;;20.20;9.38;;;;;;;13.05;100.00;99444.56;5064698;28;20036;-69
2022/10/11 06:21:21;;;;;;;13.82;7.40;;;;;;;13.13;100.00;99447.09;5069414;28;20013;-69
2022/10/11 06:23:51;;;;;;;21.17;8.30;;;;;;;13.22;100.00;99445.03;5060710;28;20071;-69
2022/10/11 06:26:17;;;;;;;16.13;7.22;;;;;;;13.28;100.00;99445.09;5066794;28;20032;-68
2022/10/11 06:28:42;;;;;;;18.48;7.65;;;;;;;13.29;100.00;99440.47;5071816;28;20036;-69
2022/10/11 06:31:08;;;;;;;17.63;7.85;;;;;;;13.11;100.00;99424.72;5073447;28;20040;-69
2022/10/11 06:33:34;;;;;;;18.63;7.35;;;;;;;13.22;100.00;99454.00;5073718;28;20099;-70
2022/10/11 06:36:03;;;;;;;16.55;6.90;;;;;;;13.30;100.00;99455.72;5072676;28;20115;-70
2022/10/11 06:38:28;;;;;;;21.60;8.80;;;;;;;13.27;100.00;99443.38;5071444;28;20024;-72
2022/10/11 06:40:54;;;;;;;16.52;7.18;;;;;;;13.32;100.00;99440.91;5056703;28;20112;-71
2022/10/11 06:43:19;;;;;;;21.95;7.22;;;;;;;13.43;100.00;99453.03;5063103;28;20381;-67
2022/10/11 06:45:45;;;;;;;15.45;8.57;;;;;;;13.42;100.00;99443.22;5067960;28;20111;-69
2022/10/11 06:48:10;;;;;;;16.70;7.57;;;;;;;13.51;100.00;99449.28;5070563;28;20469;-68
2022/10/11 06:50:39;;;;;;;16.20;7.68;;;;;;;13.54;100.00;99459.75;5066195;28;20075;-68
2022/10/11 06:53:07;;;;;;;19.35;8.40;;;;;;;13.53;100.00;99450.75;5059997;28;20709;-73
2022/10/11 06:55:32;;;;;;;21.63;8.50;;;;;;;13.59;100.00;99446.38;5066393;28;20074;-72
2022/10/11 06:57:58;;;;;;;18.60;7.80;;;;;;;13.71;100.00;99454.78;5064391;28;20283;-72
2022/10/11 07:00:23;;;;;;;16.52;7.63;;;;;;;13.73;100.00;99445.38;5062399;28;20063;-69
2022/10/11 07:02:49;;;;;;;18.25;7.70;;;;;;;13.96;100.00;99457.69;5068721;28;20071;-69
2022/10/11 07:05:15;;;;;;;20.60;8.13;;;;;;;14.01;100.00;99452.47;5066279;28;20033;-69
2022/10/11 07:07:41;;;;;;;14.70;6.97;;;;;;;14.21;100.00;99460.63;5062062;28;20036;-66
2022/10/11 07:10:07;;;;;;;21.55;7.53;;;;;;;14.38;100.00;99464.59;5064335;28;20025;-72
2022/10/11 07:12:32;;;;;;;22.92;8.13;;;;;;;14.65;100.00;99472.75;5059648;28;20032;-71
2022/10/11 07:14:58;;;;;;;15.73;6.97;;;;;;;14.62;100.00;99468.56;5070206;28;20063;-72
2022/10/11 07:17:24;;;;;;;20.52;7.47;;;;;;;14.55;100.00;99461.44;5070009;28;20103;-69
2022/10/11 07:19:50;;;;;;;16.95;7.15;;;;;;;14.54;100.00;99466.06;5064591;28;20532;-69
2022/10/11 07:22:15;;;;;;;16.98;7.68;;;;;;;14.74;100.00;99478.78;5059962;28;20026;-69
2022/10/11 07:24:41;;;;;;;19.25;7.35;;;;;;;14.55;100.00;99465.00;5067466;28;20112;-68
2022/10/11 07:27:06;;;;;;;11.82;7.40;;;;;;;14.60;100.00;99478.81;5068679;28;20453;-70
2022/10/11 07:29:31;;;;;;;16.00;7.55;;;;;;;14.61;100.00;99475.03;5064665;28;20036;-70
2022/10/11 07:31:57;;;;;;;18.23;7.70;;;;;;;14.51;100.00;99461.00;5060558;28;20032;-71
2022/10/11 07:34:22;;;;;;;20.90;7.78;;;;;;;14.69;100.00;99491.13;5064757;28;20028;-71
2022/10/11 07:36:47;;;;;;;19.83;7.47;;;;;;;14.68;100.00;99494.94;5065863;28;20044;-70
2022/10/11 07:39:13;;;;;;;20.23;7.25;;;;;;;14.59;100.00;99469.00;5064704;28;20016;-69
2022/10/11 07:41:38;;;;;;;13.75;7.25;;;;;;;14.76;100.00;99493.03;5061245;28;20035;-69
2022/10/11 07:44:04;;;;;;;12.55;7.57;;;;;;;14.65;100.00;99446.34;5068781;28;20028;-70
2022/10/11 07:46:30;;;;;;;23.77;8.10;;;;;;;14.96;100.00;99490.22;5066275;28;20520;-70
2022/10/11 07:48:55;;;;;;;20.48;7.68;;;;;;;14.86;100.00;99490.69;5065214;28;20020;-69
2022/10/11 07:51:22;;;;;;;14.70;6.82;;;;;;;14.75;100.00;99477.72;5056512;28;20036;-72
2022/10/11 07:53:50;;;;;;;16.83;6.97;;;;;;;14.92;100.00;99497.19;5063587;28;20399;-69
2022/10/11 07:56:18;;;;;;;19.23;7.88;;;;;;;14.86;100.00;99490.69;5066320;28;20059;-71
2022/10/11 07:58:43;;;;;;;16.50;7.45;;;;;;;14.82;100.00;99494.88;5069818;28;20033;-69
2022/10/11 08:01:10;;;;;;;15.05;7.18;;;;;;;14.80;100.00;99500.56;5066741;28;20028;-69
2022/10/11 08:03:37;;;;;;;17.08;6.90;;;;;;;14.82;100.00;99505.78;5071977;28;20028;-69
2022/10/11 08:06:05;;;;;;;17.25;7.20;;;;;;;14.79;100.00;99500.78;5067151;28;20032;-68
2022/10/11 08:08:30;;;;;;;15.07;7.13;;;;;;;14.66;100.00;99488.03;5062599;28;20437;-69
2022/10/11 08:10:57;;;;;;;12.45;7.00;;;;;;;14.71;100.00;99495.56;5071222;28;20048;-69
2022/10/11 08:13:22;;;;;;;13.70;6.85;;;;;;;14.70;100.00;99508.34;5071036;28;20033;-69
2022/10/11 08:15:48;;;;;;;12.88;7.45;;;;;;;14.65;100.00;99517.16;5066664;28;20127;-68
2022/10/11 08:18:13;;;;;;;16.30;7.10;;;;;;;14.67;100.00;99500.56;5057599;28;20407;-70
2022/10/11 08:20:39;;;;;;;16.58;6.82;;;;;;;14.67;100.00;99490.53;5069631;28;20074;-70
2022/10/11 08:23:04;;;;;;;13.32;7.40;;;;;;;14.82;100.00;99495.72;5062210;28;20025;-70
2022/10/11 08:25:30;;;;;;;18.30;7.70;;;;;;;15.03;100.00;99512.84;5059588;28;20043;-71
2022/10/11 08:27:55;;;;;;;15.68;7.07;;;;;;;15.12;100.00;99509.69;5072997;28;20070;-71
2022/10/11 08:30:21;;;;;;;16.92;7.43;;;;;;;15.09;100.00;99518.28;5070215;28;20618;-71
2022/10/11 08:32:46;;;;;;;18.88;7.30;;;;;;;15.11;100.00;99513.44;5063172;28;20401;-70
2022/10/11 08:35:11;;;;;;;22.70;7.38;;;;;;;15.15;100.00;99522.03;5066021;28;20500;-69
2022/10/11 08:37:36;;;;;;;15.55;6.95;;;;;;;15.19;100.00;99517.81;5067066;28;20032;-71
2022/10/11 08:40:03;;;;;;;14.27;7.25;;;;;;;15.28;100.00;99513.81;5063931;28;20036;-70
2022/10/11 08:42:37;;;;;;;14.32;8.07;;;;;;;15.26;100.00;99507.72;5066025;28;20036;-70
2022/10/11 08:45:07;;;;;;;18.30;7.78;;;;;;;15.29;100.00;99507.28;5071232;28;20024;-69
2022/10/11 08:47:38;;;;;;;17.35;7.85;;;;;;;15.43;100.00;99507.22;5063162;28;20480;-70
2022/10/11 08:50:05;;;;;;;17.45;7.68;;;;;;;15.52;100.00;99511.38;5066497;28;20021;-71
2022/10/11 08:52:36;;;;;;;16.58;7.18;;;;;;;15.67;100.00;99508.38;5067497;28;20099;-70
2022/10/11 08:55:10;;;;;;;17.13;7.60;;;;;;;15.65;100.00;99521.38;5061028;28;20029;-71
2022/10/11 08:57:37;;;;;;;17.42;6.57;;;;;;;15.81;100.00;99509.97;5068811;28;20485;-71
2022/10/11 09:00:12;;;;;;;14.57;7.30;;;;;;;15.91;100.00;99501.31;5058375;28;20162;-70
2022/10/11 09:03:18;;;;;;;16.50;7.90;;;;;;;16.15;100.00;99507.84;5057765;28;20102;-70
2022/10/11 09:06:04;;;;;;;13.30;6.45;;;;;;;16.24;100.00;99514.69;5057832;28;20028;-70
2022/10/11 09:08:39;;;;;;;16.15;7.00;;;;;;;16.46;100.00;99517.03;5057490;28;20032;-70
2022/10/11 09:11:20;;;;;;;14.65;5.57;;;;;;;16.59;100.00;99506.81;5064099;28;20024;-72
2022/10/11 09:14:05;;;;;;;15.77;6.20;;;;;;;16.55;100.00;99500.13;5058571;28;20038;-71
2022/10/11 09:16:46;;;;;;;15.73;6.32;;;;;;;16.94;100.00;99513.63;5064804;28;20032;-70
2022/10/11 09:19:30;;;;;;;11.68;5.90;;;;;;;17.11;100.00;99513.84;5056872;28;20397;-70
2022/10/11 09:22:01;;;;;;;13.82;6.65;;;;;;;17.15;100.00;99515.06;5064798;28;20037;-70
2022/10/11 09:24:46;;;;;;;9.77;6.05;;;;;;;17.09;100.00;99508.63;5066216;28;20055;-70
2022/10/11 09:27:20;;;;;;;14.63;6.30;;;;;;;17.11;100.00;99514.69;5066953;28;20492;-71
2022/10/11 09:30:08;;;;;;;11.38;6.05;;;;;;;17.48;100.00;99510.00;5068403;28;20024;-70
2022/10/11 09:32:43;;;;;;;13.50;6.07;;;;;;;17.53;100.00;99509.31;5068374;28;20451;-71
2022/10/11 09:35:13;;;;;;;12.43;6.00;;;;;;;17.94;100.00;99524.13;5067434;28;20032;-70
2022/10/11 09:38:13;;;;;;;15.05;5.15;;;;;;;18.24;100.00;99515.03;5067001;28;20040;-70
2022/10/11 09:40:53;;;;;;;17.48;6.10;;;;;;;18.23;100.00;99521.56;5065578;28;20029;-66
2022/10/11 09:43:18;;;;;;;18.92;6.32;;;;;;;18.10;100.00;99496.09;5067646;28;20037;-70
2022/10/11 09:45:45;;;;;;;15.93;6.40;;;;;;;17.96;100.00;99519.25;5092129;22;20048;-64
2022/10/11 09:48:18;;;;;;;16.83;6.32;;;;;;;18.08;100.00;99520.13;5062035;28;20098;-68
2022/10/11 09:50:45;;;;;;;20.13;5.93;;;;;;;18.47;100.00;99508.72;5069160;28;20021;-65
2022/10/11 09:53:10;;;;;;;12.65;6.00;;;;;;;18.60;100.00;99516.69;5070528;28;20020;-65
2022/10/11 09:55:42;;;;;;;15.95;6.30;;;;;;;18.87;100.00;99517.09;5066941;28;20051;-62
2022/10/11 09:58:30;;;;;;;15.98;6.63;;;;;;;19.46;100.00;99509.53;5060414;28;20079;-63
2022/10/11 10:01:02;;;;;;;15.57;5.87;;;;;;;20.02;100.00;99511.72;5059873;28;20032;-64
2022/10/11 10:03:33;;;;;;;8.27;4.75;;;;;;;21.03;97.49;99514.41;5060070;28;20039;-63
2022/10/11 10:06:17;;;;;;;10.98;5.63;;;;;;;21.11;92.22;99513.13;5056316;28;20017;-63
2022/10/11 10:08:45;;;;;;;14.45;5.97;;;;;;;21.16;87.72;99508.53;5062443;28;20032;-62
2022/10/11 10:11:11;;;;;;;9.00;4.75;;;;;;;21.62;84.19;99506.38;5069644;28;20017;-62
2022/10/11 10:13:48;;;;;;;10.43;4.68;;;;;;;22.16;81.94;99501.91;5059913;28;20172;-62
2022/10/11 10:16:38;;;;;;;11.60;5.15;;;;;;;22.42;77.69;99509.31;5062739;28;20409;-60
2022/10/11 10:19:22;;;;;;;14.90;5.28;;;;;;;22.66;74.12;99500.66;5063339;28;20049;-60
2022/10/11 10:21:50;;;;;;;11.73;4.93;;;;;;;22.51;75.18;99506.94;5065692;28;20024;-60
2022/10/11 10:24:25;;;;;;;15.15;5.13;;;;;;;22.52;73.89;99509.41;5058845;28;20464;-61
2022/10/11 10:27:29;;;;;;;13.15;4.90;;;;;;;22.05;76.99;99507.34;5059406;28;20064;-60
2022/10/11 10:30:00;;;;;;;11.02;5.15;;;;;;;22.49;73.87;99512.69;5006581;28;20050;-60
2022/10/11 10:32:58;;;;;;;11.50;4.93;;;;;;;23.03;69.80;99502.56;5051606;28;20037;-61
2022/10/11 10:35:24;;;;;;;7.75;4.28;;;;;;;24.09;66.60;99501.25;5058366;28;20025;-60
2022/10/11 10:38:15;;;;;;;8.35;4.05;;;;;;;24.52;62.97;99498.25;5061410;28;20036;-60
2022/10/11 10:40:52;;;;;;;10.80;4.97;;;;;;;25.28;60.54;99495.31;5062793;28;20029;-60
2022/10/11 10:43:20;;;;;;;12.85;4.50;;;;;;;25.82;58.31;99492.81;5066007;28;20098;-60
2022/10/11 10:46:07;;;;;;;6.57;4.13;;;;;;;26.00;55.83;99495.75;5058914;28;20039;-61
2022/10/11 10:48:35;;;;;;;11.60;4.55;;;;;;;25.75;57.01;99493.97;5065944;28;20032;-61
2022/10/11 10:51:28;;;;;;;9.38;4.43;;;;;;;24.46;59.03;99489.13;5067163;28;20027;-60
2022/10/11 10:54:09;;;;;;;13.40;4.10;;;;;;;24.88;59.42;99490.72;5065871;28;20166;-60
2022/10/11 10:56:51;;;;;;;12.88;4.63;;;;;;;26.56;55.00;99493.66;5071555;28;20032;-61
2022/10/11 10:59:35;;;;;;;8.27;3.92;;;;;;;26.91;52.46;99491.63;5051899;28;20098;-60
2022/10/11 11:02:13;;;;;;;9.35;3.60;;;;;;;26.74;53.28;99492.91;5064309;28;20181;-61
2022/10/11 11:04:47;;;;;;;8.32;3.60;;;;;;;28.13;50.51;99483.63;5069859;28;20035;-60
2022/10/11 11:07:30;;;;;;;8.82;3.30;;;;;;;27.86;51.03;99481.56;5068045;28;20016;-61
2022/10/11 11:10:05;;;;;;;23.60;4.38;;;;;;;28.22;49.49;99481.84;5063805;28;20078;-67
2022/10/11 11:12:46;;;;;;;9.32;3.72;;;;;;;27.08;49.92;99487.25;5066781;28;20032;-68
2022/10/11 11:15:32;;;;;;;9.93;3.47;;;;;;;25.99;51.97;99482.16;5070349;28;20063;-60
2022/10/11 11:18:25;;;;;;;5.93;4.10;;;;;;;25.33;54.22;99489.72;5064750;28;20109;-60
2022/10/11 11:21:03;;;;;;;16.73;4.93;;;;;;;24.19;57.95;99494.91;5064279;28;20037;-61
2022/10/11 11:23:56;;;;;;;7.28;4.35;;;;;;;24.65;57.60;99472.78;5069490;28;20028;-60
2022/10/11 11:26:31;;;;;;;14.45;4.70;;;;;;;24.98;57.16;99478.78;5059950;28;20492;-60
2022/10/11 11:28:59;;;;;;;10.38;4.38;;;;;;;25.03;55.93;99476.81;5061654;28;20040;-67
2022/10/11 11:31:49;;;;;;;9.65;4.32;;;;;;;25.64;54.96;99472.94;5062456;28;20087;-68
2022/10/11 11:34:24;;;;;;;10.48;3.90;;;;;;;25.94;54.38;99466.41;5060644;28;20040;-68